Independence, Ca., Owens Valley School Weather observations

 Day   Time    Ave.   Ave.  Ave.  Vector  Max.   Total    Solar  
  of    of     Air    Rel.  Wind   Wind   Wind  Precip.   Rad.   
Year   Day     Temp.  Hum.  Speed  Dir.   Gust                   
2015   (PST)    F      %     mph   deg.    mph    in.     W/m2  
----------------------------------------------------------------
 113   17:50   64.7    29    8.7   325    18.4    0.00       4
 113   18:00   63.7    31    8.3   346    17.1    0.00       2
 113   18:10   62.9    33    7.0   351    15.6    0.00       1
 113   18:20   62.5    33    6.0   350    14.2    0.00       0
 113   18:30   62.0    34    7.9   357    14.7    0.00       0
 113   18:40   61.6    35    7.4     3    16.4    0.00       0
 113   18:50   61.6    35    8.3    23    16.7    0.00       0
 113   19:00   62.7    31    4.2    10    12.8    0.00       0
 113   19:10   62.2    33    4.9     6    11.5    0.00       0
 113   19:20   61.5    35    4.1   357    12.1    0.00       0
 113   19:30   60.9    36    1.8   320     7.6    0.00       0
 113   19:40   60.4    37    2.8   324     8.8    0.00       0
 113   19:50   60.2    37    1.9   321     8.4    0.00       0
 113   20:00   60.1    38    5.6   322    11.6    0.00       0
 113   20:10   59.9    42    7.3   330    14.7    0.00       0
 113   20:20   59.7    43    7.2   327    16.9    0.00       0
 113   20:30   59.3    45    8.3   329    16.9    0.00       0
 113   20:40   58.2    49    8.3   332    19.2    0.00       0
 113   20:50   57.4    51    6.8   326    13.9    0.00       0
 113   21:00   56.9    52    5.3   322    11.1    0.00       0
 113   21:10   56.4    54    2.0   315     7.3    0.00       0
 113   21:20   56.0    55    1.5   302     6.8    0.00       0
 113   21:30   56.0    55    1.8   310     5.9    0.00       0
 113   21:40   56.0    55    1.2   312     7.2    0.00       0
 113   21:50   56.0    55    2.3   317     7.1    0.00       0
 113   22:00   56.1    56    2.8   314     8.1    0.00       0
 113   22:10   55.7    57    1.6   314     7.0    0.00       0
 113   22:20   55.6    57    2.6   310     8.4    0.00       0
 113   22:30   55.3    57    1.9   315     8.0    0.00       0
 113   22:40   55.0    58    2.5   316     8.4    0.00       0
 113   22:50   54.8    58    1.9   312     6.5    0.00       0
 113   23:00   54.6    59    3.5   315     8.0    0.00       0
 113   23:10   54.5    59    3.9   325    10.8    0.00       0
 113   23:20   54.4    58    3.2   324     8.2    0.00       0
 113   23:30   54.1    58    3.5   320     8.7    0.00       0
 113   23:40   53.9    59    2.1   321     5.4    0.00       0
 113   23:50   53.9    60    1.2   318     6.0    0.00       0
 114    0:00   54.2    58    0.8   309     5.5    0.00       0
 114    0:10   54.2    59    3.3    20     7.1    0.00       0
 114    0:20   51.9    66    1.0    57     6.8    0.00       0
 114    0:30   51.4    68    0.0     0     0.0    0.00       0
 114    0:40   51.8    67    0.0     0     0.0    0.00       0
 114    0:50   52.2    66    0.0   196     1.7    0.00       0
 114    1:00   52.4    65    0.0     0     0.0    0.00       0
 114    1:10   51.9    66    0.6    39     3.3    0.00       0
 114    1:20   51.3    68    0.2    18     3.8    0.00       0
 114    1:30   51.2    68    0.0     0     0.0    0.00       0
 114    1:40   50.6    69    0.0     0     0.0    0.00       0
 114    1:50   49.9    70    0.0     0     0.0    0.00       0
 114    2:00   49.5    71    0.3   266     3.3    0.00       0
 114    2:10   50.3    70    1.6   277     5.2    0.00       0
 114    2:20   51.2    67    4.7   311     9.6    0.00       0
 114    2:30   51.9    65    5.0   321     9.3    0.00       0
 114    2:40   52.6    64    2.9   317    10.8    0.00       0
 114    2:50   52.6    63    0.5   328     5.2    0.00       0
 114    3:00   52.3    64    1.5   338     4.9    0.00       0
 114    3:10   51.2    66    2.2    19     8.2    0.00       0
 114    3:20   49.6    70    2.1   333     5.2    0.00       0
 114    3:30   49.5    71    0.7   330     3.9    0.00       0
 114    3:40   49.2    71    0.0     0     0.0    0.00       0
 114    3:50   49.5    71    0.0     0     0.0    0.00       0
 114    4:00   49.8    70    0.0   215     1.0    0.00       0
 114    4:10   50.2    67    0.5   210     4.6    0.00       0
 114    4:20   51.4    64    0.0     0     0.0    0.00       0
 114    4:30   51.3    64    0.0     0     0.0    0.00       0
 114    4:40   50.8    66    0.0     0     0.0    0.00       2
 114    4:50   50.1    67    0.3   155     4.4    0.00       5
 114    5:00   48.9    70    3.7    93     6.8    0.00      15
 114    5:10   48.7    71    0.0    78     0.5    0.00      29
 114    5:20   49.7    69    0.9   254     5.6    0.00      49
 114    5:30   51.0    65    1.4   134     4.3    0.00      68
 114    5:40   51.6    64    0.9    48     3.5    0.00      86
 114    5:50   52.0    62    1.4   136     5.2    0.00      98
 114    6:00   52.8    61    1.4   129     3.9    0.00     158
 114    6:10   55.1    58    2.8    53     8.4    0.00     253
 114    6:20   55.9    56    3.7   147     8.4    0.00     289
 114    6:30   59.5    47    0.2   110     4.1    0.00     397
 114    6:40   60.5    46    2.3   328     7.9    0.00     372
 114    6:50   58.8    49    2.4   327     8.2    0.00     325
 114    7:00   61.0    45    1.2   357     4.5    0.00     440
 114    7:10   63.4    42    2.1    44     5.4    0.00     484
 114    7:20   65.1    39    1.0     0     4.7    0.00     510
 114    7:30   64.5    40    3.6    59     6.8    0.00     550
 114    7:40   66.4    36    0.9    60     4.9    0.00     606
 114    7:50   67.3    36    2.1    83     5.2    0.00     667
 114    8:00   69.3    32    1.2    66     6.6    0.00     750
 114    8:10   67.4    34    3.4    80     9.0    0.00     652
 114    8:20   65.7    34    3.8    40     8.9    0.00     320
 114    8:30   66.6    32    5.2    51     9.8    0.00     652
 114    8:40   67.0    30    2.3    49     8.2    0.00     575
 114    8:50   69.8    27    3.7    26     8.3    0.00     789
 114    9:00   70.3    27    4.4   358    11.7    0.00     818
 114    9:10   70.2    26    4.9    22    10.5    0.00     832
 114    9:20   71.0    24    3.7   291     8.9    0.00     882
 114    9:30   71.3    22    5.3   255    14.7    0.00     943
 114    9:40   70.8    19    8.9   238    20.2    0.00     980
 114    9:50   69.1    19    8.3   241    19.7    0.00     417
 114   10:00   66.9    19    9.5   243    21.2    0.00     260
 114   10:10   67.9    17    9.7   241    20.4    0.00     702
 114   10:20   70.5    15    8.7   245    18.2    0.00     728
 114   10:30   67.9    16   10.2   236    21.7    0.00     440
 114   10:40   70.6    15   10.5   248    21.7    0.00    1035
 114   10:50   71.5    14   10.5   257    22.9    0.00     924
 114   11:00   69.3    16   15.5   249    35.6    0.00     661
 114   11:10   69.6    16   12.5   250    26.1    0.00     756
 114   11:20   70.0    17   12.5   249    27.2    0.00     858
 114   11:30   70.9    16   11.8   247    28.8    0.00    1117
 114   11:40   71.9    15   10.6   247    23.5    0.00    1102
 114   11:50   71.4    16   10.6   247    21.0    0.00     873
 114   12:00   70.1    17    9.7   247    25.0    0.00     472
 114   12:10   67.9    18   12.7   249    24.8    0.00     262
 114   12:20   67.5    18   11.0   249    26.1    0.00     254
 114   12:30   67.1    19   10.9   254    22.0    0.00     258
 114   12:40   67.6    18   10.9   252    25.0    0.00     305
 114   12:50   67.9    17    8.4   249    20.4    0.00     371
 114   13:00   68.6    17    9.0   241    19.3    0.00     464
 114   13:10   70.9    15    8.5   241    18.0    0.00     812
 114   13:20   72.0    15    7.5   240    16.9    0.00     778
 114   13:30   72.0    15    6.1   252    16.2    0.00     680
 114   13:40   73.1    14    7.6   252    15.9    0.00     801
 114   13:50   73.1    14    9.5   262    19.8    0.00     761
 114   14:00   72.5    14    6.5   246    17.3    0.00     735
 114   14:10   72.8    14    8.0   243    19.0    0.00     704
 114   14:20   72.1    14    8.1   269    16.4    0.00     697
 114   14:30   72.7    14    7.1   246    15.8    0.00     639
 114   14:40   72.6    14    9.5   249    19.5    0.00     621
 114   14:50   72.3    15    8.3   259    23.6    0.00     615
 114   15:00   72.0    15    9.6   254    22.3    0.00     585
 114   15:10   71.7    14    9.6   262    25.2    0.00     544
 114   15:20   71.9    14    8.8   264    19.1    0.00     509
 114   15:30   70.3    17   10.6   245    24.0    0.00     428
 114   15:40   69.3    17   11.1   250    24.2    0.00     356
 114   15:50   68.7    18   11.7   256    26.1    0.00     344
 114   16:00   68.5    18   13.9   250    26.7    0.00     333
 114   16:10   68.0    19   13.4   260    28.3    0.00     333
 114   16:20   68.1    19   13.4   258    26.1    0.00     294
 114   16:30   67.3    20   14.7   261    29.4    0.00     254
 114   16:40   67.4    20   13.5   257    28.0    0.00     240
 114   16:50   67.3    19   11.6   260    26.5    0.00     207
 114   17:00   66.2    21   12.7   258    26.6    0.00     173
 114   17:10   64.8    22   11.2   256    20.1    0.00      50
 114   17:20   64.2    22    9.8   259    22.3    0.00      28
 114   17:30   64.3    21    9.7   260    18.5    0.00      23
 114   17:40   64.3    21    9.9   267    22.0    0.00      20

Return to Independence, Ca. graphs page.


Western Regional Climate Center,wrcc@dri.edu